createdAt,value
2022-09-04T00:02:32.647Z,12.40
2022-09-04T00:05:28.280Z,12.40
2022-09-04T00:08:31.515Z,12.40
2022-09-04T00:11:04.143Z,12.30
2022-09-04T00:13:39.420Z,12.30
2022-09-04T00:16:17.032Z,12.40
2022-09-04T00:18:51.429Z,12.40
2022-09-04T00:21:29.757Z,12.50
2022-09-04T00:24:03.522Z,12.40
2022-09-04T00:26:50.254Z,12.30
2022-09-04T00:29:44.256Z,12.40
2022-09-04T00:32:20.891Z,12.20
2022-09-04T00:34:56.661Z,12.20
2022-09-04T00:37:29.578Z,12.20
2022-09-04T00:40:11.939Z,12.20
2022-09-04T00:42:53.874Z,12.10
2022-09-04T00:45:36.133Z,12.10
2022-09-04T00:48:38.792Z,12.20
2022-09-04T00:51:24.133Z,12.20
2022-09-04T00:54:13.297Z,12.20
2022-09-04T00:57:00.230Z,12.20
2022-09-04T00:59:39.154Z,12.20
2022-09-04T01:02:18.169Z,12.20
2022-09-04T01:05:05.213Z,12.30
2022-09-04T01:07:41.384Z,12.30
2022-09-04T01:10:32.634Z,12.40
2022-09-04T01:13:21.002Z,12.50
2022-09-04T01:16:01.294Z,12.60
2022-09-04T01:18:43.979Z,12.50
2022-09-04T01:22:01.600Z,12.60
2022-09-04T01:24:54.067Z,12.50
2022-09-04T01:27:42.049Z,12.60
2022-09-04T01:30:11.463Z,12.60
2022-09-04T01:33:17.421Z,12.60
2022-09-04T01:36:06.267Z,12.70
2022-09-04T01:38:51.210Z,12.60
2022-09-04T01:41:38.452Z,12.70
2022-09-04T01:44:08.339Z,12.70
2022-09-04T01:47:09.268Z,12.80
2022-09-04T01:49:42.685Z,12.70
2022-09-04T01:52:23.408Z,12.70
2022-09-04T01:54:57.090Z,12.70
2022-09-04T01:57:59.019Z,12.80
2022-09-04T02:00:33.954Z,12.80
2022-09-04T02:03:25.381Z,12.70
2022-09-04T02:06:26.757Z,12.70
2022-09-04T02:09:24.625Z,12.70
2022-09-04T02:12:03.219Z,12.70
2022-09-04T02:15:04.230Z,12.80
2022-09-04T02:17:54.102Z,12.70
2022-09-04T02:20:25.173Z,12.70
2022-09-04T02:23:05.284Z,12.60
2022-09-04T02:26:02.092Z,12.70
2022-09-04T02:28:52.343Z,12.60
2022-09-04T02:31:29.238Z,12.60
2022-09-04T02:34:23.019Z,12.60
2022-09-04T02:37:07.713Z,12.70
2022-09-04T02:39:43.358Z,12.60
2022-09-04T02:42:41.580Z,12.70
2022-09-04T02:45:13.797Z,12.80
2022-09-04T02:48:04.044Z,12.70
2022-09-04T02:50:59.003Z,12.60
2022-09-04T02:54:04.301Z,12.60
2022-09-04T02:56:58.606Z,12.60
2022-09-04T02:59:55.523Z,12.50
2022-09-04T03:03:02.643Z,12.60
2022-09-04T03:06:01.606Z,12.60
2022-09-04T03:08:45.314Z,12.50
2022-09-04T03:11:23.882Z,12.40
2022-09-04T03:14:01.484Z,12.40
2022-09-04T03:16:48.412Z,12.30
2022-09-04T03:19:18.972Z,12.40
2022-09-04T03:21:50.101Z,12.40
2022-09-04T03:24:29.005Z,12.40
2022-09-04T03:27:01.521Z,12.50
2022-09-04T03:29:51.164Z,12.50
2022-09-04T03:32:51.943Z,12.30
2022-09-04T03:35:30.350Z,12.20
2022-09-04T03:38:29.408Z,12.20
2022-09-04T03:41:08.820Z,12.20
2022-09-04T03:44:05.353Z,12.20
2022-09-04T03:46:59.136Z,12.20
2022-09-04T03:49:46.130Z,12.30
2022-09-04T03:52:32.964Z,12.40
2022-09-04T03:55:15.973Z,12.40
2022-09-04T03:58:09.554Z,12.40
2022-09-04T04:00:45.909Z,12.40
2022-09-04T04:03:31.667Z,12.30
2022-09-04T04:06:25.923Z,12.20
2022-09-04T04:09:26.110Z,12.20
2022-09-04T04:12:27.079Z,12.30
2022-09-04T04:15:27.664Z,12.30
2022-09-04T04:18:23.197Z,12.30
2022-09-04T04:21:07.909Z,12.40
2022-09-04T04:23:58.053Z,12.40
2022-09-04T04:26:40.600Z,12.40
2022-09-04T04:29:41.541Z,12.50
2022-09-04T04:32:20.079Z,12.50
2022-09-04T04:35:11.500Z,12.40
2022-09-04T04:37:56.230Z,12.40
2022-09-04T04:40:53.292Z,12.30
2022-09-04T04:43:47.866Z,12.30
2022-09-04T04:46:45.757Z,12.30
2022-09-04T04:49:41.441Z,12.20
2022-09-04T04:52:19.341Z,12.30
2022-09-04T04:55:14.847Z,12.40
2022-09-04T04:58:05.856Z,12.50
2022-09-04T05:00:42.934Z,12.60
2022-09-04T05:03:32.260Z,12.60
2022-09-04T05:06:40.724Z,12.60
2022-09-04T05:09:21.880Z,12.60
2022-09-04T05:12:26.449Z,12.70
2022-09-04T05:15:08.543Z,12.70
2022-09-04T05:17:52.251Z,12.80
2022-09-04T05:20:37.685Z,12.80
2022-09-04T05:23:32.901Z,12.80
2022-09-04T05:25:59.626Z,12.80
2022-09-04T05:28:41.474Z,12.80
2022-09-04T05:31:24.386Z,12.80
2022-09-04T05:34:09.305Z,13.00
2022-09-04T05:36:41.760Z,12.80
2022-09-04T05:39:13.161Z,12.80
2022-09-04T05:42:16.987Z,12.90
2022-09-04T05:45:08.709Z,12.90
2022-09-04T05:47:58.840Z,12.80
2022-09-04T05:51:01.421Z,12.90
2022-09-04T05:53:41.185Z,13.00
2022-09-04T05:56:10.764Z,13.00
2022-09-04T05:59:07.303Z,13.20
2022-09-04T06:01:52.040Z,13.20
2022-09-04T06:04:32.135Z,13.30
2022-09-04T06:07:29.431Z,13.40
2022-09-04T06:10:05.032Z,13.50
2022-09-04T06:12:46.825Z,13.60
2022-09-04T06:15:19.429Z,13.70
2022-09-04T06:18:42.519Z,13.80
2022-09-04T06:21:21.570Z,13.90
2022-09-04T06:24:06.792Z,14.00
2022-09-04T06:27:06.374Z,14.10
2022-09-04T06:29:46.355Z,14.30
2022-09-04T06:32:15.829Z,14.30
2022-09-04T06:35:27.072Z,14.40
2022-09-04T06:38:15.641Z,14.60
2022-09-04T06:41:02.349Z,14.80
2022-09-04T06:43:48.719Z,14.90
2022-09-04T06:46:40.439Z,15.10
2022-09-04T06:49:33.556Z,15.30
2022-09-04T06:52:32.663Z,15.60
2022-09-04T06:55:16.099Z,16.00
2022-09-04T06:57:54.801Z,16.20
2022-09-04T07:00:21.834Z,16.40
2022-09-04T07:03:00.907Z,16.90
2022-09-04T07:06:18.297Z,18.40
2022-09-04T07:08:54.449Z,20.20
2022-09-04T07:11:54.424Z,23.70
2022-09-04T07:14:31.276Z,26.10
2022-09-04T07:17:08.336Z,27.40
2022-09-04T07:20:12.826Z,28.00
2022-09-04T07:23:04.232Z,28.20
2022-09-04T07:25:45.869Z,29.90
2022-09-04T07:28:47.987Z,30.30
2022-09-04T07:31:23.253Z,31.10
2022-09-04T07:34:08.132Z,31.30
2022-09-04T07:36:53.473Z,31.30
2022-09-04T07:39:39.413Z,31.50
2022-09-04T07:42:27.908Z,32.10
2022-09-04T07:45:27.821Z,32.30
2022-09-04T07:48:06.800Z,32.80
2022-09-04T07:50:41.382Z,32.40
2022-09-04T07:53:21.601Z,33.00
2022-09-04T07:55:57.996Z,33.20
2022-09-04T07:58:46.643Z,33.50
2022-09-04T08:01:31.564Z,33.30
2022-09-04T08:04:35.325Z,33.80
2022-09-04T08:07:10.760Z,34.00
2022-09-04T08:10:03.827Z,33.40
2022-09-04T08:12:56.463Z,34.20
2022-09-04T08:15:44.104Z,32.20
2022-09-04T08:18:37.224Z,32.30
2022-09-04T08:21:34.731Z,33.30
2022-09-04T08:24:10.518Z,34.00
2022-09-04T08:26:59.695Z,33.40
2022-09-04T08:29:50.285Z,33.10
2022-09-04T08:32:39.034Z,33.30
2022-09-04T08:35:23.845Z,34.20
2022-09-04T08:37:56.457Z,34.40
2022-09-04T08:40:50.740Z,35.00
2022-09-04T08:43:37.859Z,34.40
2022-09-04T08:46:27.099Z,34.10
2022-09-04T08:49:11.544Z,34.20
2022-09-04T08:51:44.251Z,34.80
2022-09-04T08:54:48.861Z,34.90
2022-09-04T08:57:38.848Z,34.60
2022-09-04T09:00:20.739Z,34.70
2022-09-04T09:03:12.692Z,35.10
2022-09-04T09:05:58.083Z,34.90
2022-09-04T09:08:45.908Z,34.70
2022-09-04T09:11:50.016Z,34.20
2022-09-04T09:14:16.643Z,34.80
2022-09-04T09:16:45.395Z,35.60
2022-09-04T09:19:37.969Z,35.70
2022-09-04T09:22:12.738Z,35.40
2022-09-04T09:25:21.253Z,35.30
2022-09-04T09:27:48.216Z,35.80
2022-09-04T09:30:22.441Z,35.80
2022-09-04T09:32:59.282Z,35.10
2022-09-04T09:36:04.640Z,35.30
2022-09-04T09:38:49.421Z,35.30
2022-09-04T09:41:41.907Z,31.60
2022-09-04T09:44:54.953Z,33.40
2022-09-04T09:47:49.802Z,33.60
2022-09-04T09:50:38.437Z,33.90
2022-09-04T09:53:16.175Z,34.60
2022-09-04T09:56:04.449Z,35.00
2022-09-04T09:58:47.098Z,34.40
2022-09-04T10:01:25.885Z,32.80
2022-09-04T10:04:21.524Z,32.20
2022-09-04T10:07:41.939Z,31.20
2022-09-04T10:10:24.774Z,28.00
2022-09-04T10:13:19.468Z,30.60
2022-09-04T10:16:19.998Z,31.40
2022-09-04T10:19:08.684Z,28.10
2022-09-04T10:22:04.077Z,29.00
2022-09-04T10:25:02.247Z,30.00
2022-09-04T10:28:00.060Z,31.10
2022-09-04T10:30:53.999Z,30.70
2022-09-04T10:33:33.311Z,32.20
2022-09-04T10:36:18.605Z,31.70
2022-09-04T10:39:27.225Z,31.70
2022-09-04T10:42:06.464Z,28.80
2022-09-04T10:45:17.010Z,26.30
2022-09-04T10:48:17.493Z,26.40
2022-09-04T10:51:15.659Z,26.70
2022-09-04T10:54:14.784Z,26.50
2022-09-04T10:57:08.178Z,26.00
2022-09-04T11:00:07.853Z,26.50
2022-09-04T11:03:23.183Z,26.50
2022-09-04T11:06:17.642Z,26.40
2022-09-04T11:09:04.476Z,26.70
2022-09-04T11:11:44.275Z,27.00
2022-09-04T11:14:53.524Z,26.80
2022-09-04T11:17:52.417Z,26.20
2022-09-04T11:20:59.094Z,26.40
2022-09-04T11:27:07.923Z,25.50
2022-09-04T11:30:13.799Z,25.70
2022-09-04T11:32:48.805Z,25.90
2022-09-04T11:35:52.030Z,25.60
2022-09-04T11:39:16.184Z,25.40
2022-09-04T11:42:20.083Z,26.10
2022-09-04T11:45:19.524Z,25.90
2022-09-04T11:48:11.369Z,25.80
2022-09-04T11:51:06.674Z,25.40
2022-09-04T11:53:50.717Z,25.30
2022-09-04T11:56:40.198Z,25.10
2022-09-04T11:59:11.135Z,24.90
2022-09-04T12:02:15.523Z,25.10
2022-09-04T12:05:07.877Z,24.70
2022-09-04T12:08:02.343Z,24.80
2022-09-04T12:10:55.781Z,24.70
2022-09-04T12:13:37.810Z,24.80
2022-09-04T12:16:07.657Z,24.90
2022-09-04T12:18:44.822Z,24.80
2022-09-04T12:21:34.851Z,24.50
2022-09-04T12:24:26.048Z,24.90
2022-09-04T12:27:11.830Z,25.30
2022-09-04T12:29:41.720Z,25.40
2022-09-04T12:32:14.551Z,25.70
2022-09-04T12:34:56.474Z,25.00
2022-09-04T12:37:57.939Z,25.20
2022-09-04T12:40:31.084Z,25.10
2022-09-04T12:43:24.182Z,25.10
2022-09-04T12:45:54.218Z,24.70
2022-09-04T12:48:46.013Z,25.00
2022-09-04T12:51:24.034Z,25.20
2022-09-04T12:53:53.925Z,25.30
2022-09-04T12:56:42.853Z,25.10
2022-09-04T12:59:38.294Z,24.80
2022-09-04T13:02:11.314Z,24.90
2022-09-04T13:04:45.369Z,24.90
2022-09-04T13:07:30.882Z,25.10
2022-09-04T13:10:12.203Z,25.10
2022-09-04T13:13:17.019Z,24.80
2022-09-04T13:15:52.853Z,24.30
2022-09-04T13:18:44.945Z,24.30
2022-09-04T13:21:11.738Z,24.30
2022-09-04T13:23:52.836Z,24.20
2022-09-04T13:26:37.592Z,24.00
2022-09-04T13:29:23.681Z,24.00
2022-09-04T13:32:02.653Z,24.10
2022-09-04T13:34:30.780Z,24.20
2022-09-04T13:37:21.187Z,23.80
2022-09-04T13:40:29.507Z,23.70
2022-09-04T13:43:03.508Z,24.10
2022-09-04T13:45:38.977Z,24.00
2022-09-04T13:48:11.952Z,24.10
2022-09-04T13:50:57.915Z,24.10
2022-09-04T13:53:33.920Z,24.00
2022-09-04T13:56:03.439Z,23.70
2022-09-04T13:59:01.657Z,23.60
2022-09-04T14:01:31.468Z,23.60
2022-09-04T14:04:02.804Z,23.40
2022-09-04T14:06:31.189Z,23.40
2022-09-04T14:09:05.605Z,23.30
2022-09-04T14:11:40.463Z,23.20
2022-09-04T14:14:33.281Z,23.20
2022-09-04T14:17:02.479Z,23.40
2022-09-04T14:20:03.366Z,23.40
2022-09-04T14:22:39.839Z,23.30
2022-09-04T14:25:51.097Z,23.20
2022-09-04T14:28:34.138Z,23.20
2022-09-04T14:32:06.801Z,23.30
2022-09-04T14:34:14.962Z,23.20
2022-09-04T14:36:56.574Z,23.30
2022-09-04T14:39:46.209Z,23.40
2022-09-04T14:42:47.616Z,23.40
2022-09-04T14:45:41.607Z,23.50
2022-09-04T14:48:11.942Z,23.50
2022-09-04T14:50:57.693Z,23.40
2022-09-04T14:53:28.461Z,23.30
2022-09-04T14:56:16.660Z,23.50
2022-09-04T14:58:50.850Z,23.50
2022-09-04T15:01:20.172Z,23.60
2022-09-04T15:04:23.983Z,23.50
2022-09-04T15:07:12.172Z,23.60
2022-09-04T15:09:45.768Z,23.50
2022-09-04T15:12:33.724Z,23.60
2022-09-04T15:15:07.615Z,23.60
2022-09-04T15:17:40.009Z,23.50
2022-09-04T15:20:17.043Z,23.20
2022-09-04T15:22:53.256Z,23.30
2022-09-04T15:25:57.719Z,23.20
2022-09-04T15:28:51.618Z,23.40
2022-09-04T15:31:30.374Z,23.40
2022-09-04T15:34:02.742Z,23.10
2022-09-04T15:36:30.863Z,23.30
2022-09-04T15:39:01.140Z,23.40
2022-09-04T15:41:47.487Z,23.30
2022-09-04T15:44:38.688Z,23.10
2022-09-04T15:47:12.394Z,23.10
2022-09-04T15:50:00.276Z,23.00
2022-09-04T15:52:44.601Z,23.10
2022-09-04T15:55:24.082Z,23.10
2022-09-04T15:58:29.320Z,23.10
2022-09-04T16:01:06.112Z,23.10
2022-09-04T16:03:37.896Z,23.10
2022-09-04T16:06:16.041Z,23.10
2022-09-04T16:08:58.690Z,23.10
2022-09-04T16:11:35.025Z,22.80
2022-09-04T16:14:06.597Z,22.70
2022-09-04T16:16:40.671Z,22.70
2022-09-04T16:19:34.393Z,22.50
2022-09-04T16:22:21.330Z,22.50
2022-09-04T16:24:54.017Z,22.40
2022-09-04T16:27:25.902Z,22.40
2022-09-04T16:30:02.883Z,22.20
2022-09-04T16:32:33.466Z,22.20
2022-09-04T16:35:05.750Z,22.20
2022-09-04T16:37:52.994Z,22.20
2022-09-04T16:40:54.340Z,22.40
2022-09-04T16:43:27.838Z,22.50
2022-09-04T16:46:08.271Z,22.40
2022-09-04T16:49:01.426Z,22.10
2022-09-04T16:51:43.263Z,22.10
2022-09-04T16:54:28.805Z,21.90
2022-09-04T16:57:15.294Z,21.60
2022-09-04T16:59:52.722Z,21.50
2022-09-04T17:02:41.782Z,21.60
2022-09-04T17:05:34.795Z,21.50
2022-09-04T17:08:07.855Z,21.30
2022-09-04T17:10:48.064Z,21.20
2022-09-04T17:13:21.847Z,21.30
2022-09-04T17:16:04.961Z,21.10
2022-09-04T17:18:32.199Z,21.00
2022-09-04T17:24:25.258Z,20.80
2022-09-04T17:29:04.607Z,20.80
2022-09-04T17:29:07.928Z,20.60
2022-09-04T17:30:33.811Z,20.40
2022-09-04T17:36:37.693Z,20.30
2022-09-04T17:40:37.146Z,20.20
2022-09-04T17:40:50.439Z,20.10
2022-09-04T17:42:21.874Z,20.00
2022-09-04T17:45:22.247Z,19.90
2022-09-04T17:48:18.391Z,19.70
2022-09-04T17:50:56.058Z,19.60
2022-09-04T17:53:34.273Z,19.50
2022-09-04T17:56:15.606Z,19.40
2022-09-04T17:58:57.053Z,19.20
2022-09-04T18:01:29.724Z,19.10
2022-09-04T18:04:48.283Z,19.00
2022-09-04T18:08:07.866Z,18.90
2022-09-04T18:10:38.050Z,18.80
2022-09-04T18:13:37.475Z,18.60
2022-09-04T18:16:28.614Z,18.50
2022-09-04T18:18:58.328Z,18.40
2022-09-04T18:21:44.232Z,18.30
2022-09-04T18:24:28.870Z,18.20
2022-09-04T18:26:58.594Z,18.20
2022-09-04T18:32:29.088Z,18.10
2022-09-04T18:37:12.870Z,18.10
2022-09-04T18:37:20.593Z,17.90
2022-09-04T18:39:08.424Z,17.80
2022-09-04T18:50:20.675Z,17.80
2022-09-04T18:50:34.460Z,17.60
2022-09-04T18:50:35.290Z,17.70
2022-09-04T18:51:25.651Z,17.50
2022-09-04T18:54:36.278Z,17.40
2022-09-04T18:57:20.411Z,17.30
2022-09-04T18:59:55.749Z,17.20
2022-09-04T19:02:53.474Z,17.10
2022-09-04T19:05:21.568Z,17.00
2022-09-04T19:07:56.841Z,17.00
2022-09-04T19:10:26.468Z,16.90
2022-09-04T19:13:08.568Z,16.90
2022-09-04T19:16:02.010Z,16.80
2022-09-04T19:18:45.479Z,16.70
2022-09-04T19:21:24.203Z,16.70
2022-09-04T19:24:17.016Z,16.70
2022-09-04T19:26:55.975Z,16.60
2022-09-04T19:29:37.893Z,16.60
2022-09-04T19:32:07.756Z,16.50
2022-09-04T19:34:48.452Z,16.40
2022-09-04T19:42:37.900Z,16.40
2022-09-04T19:45:53.992Z,16.30
2022-09-04T19:46:09.187Z,16.20
2022-09-04T19:46:42.194Z,16.20
2022-09-04T19:53:22.752Z,16.20
2022-09-04T19:53:31.985Z,16.10
2022-09-04T19:55:24.355Z,16.10
2022-09-04T19:58:11.507Z,16.00
2022-09-04T20:00:56.413Z,16.00
2022-09-04T20:04:03.402Z,15.90
2022-09-04T20:06:36.389Z,15.90
2022-09-04T20:09:15.613Z,15.90
2022-09-04T20:11:47.835Z,15.80
2022-09-04T20:14:23.112Z,15.80
2022-09-04T20:17:13.336Z,16.00
2022-09-04T20:19:45.639Z,15.90
2022-09-04T20:22:24.780Z,15.70
2022-09-04T20:25:09.619Z,15.60
2022-09-04T20:27:52.580Z,15.50
2022-09-04T20:30:23.952Z,15.50
2022-09-04T20:33:01.588Z,15.60
2022-09-04T20:35:54.273Z,15.50
2022-09-04T20:38:30.389Z,15.40
2022-09-04T20:41:24.678Z,15.30
2022-09-04T20:44:03.416Z,15.30
2022-09-04T20:52:21.853Z,15.30
2022-09-04T20:52:54.414Z,15.20
2022-09-04T20:53:07.001Z,15.20
2022-09-04T20:55:46.157Z,15.10
2022-09-04T21:03:21.974Z,15.10
2022-09-04T21:03:23.004Z,15.00
2022-09-04T21:05:15.098Z,15.10
2022-09-04T21:07:47.329Z,15.00
2022-09-04T21:10:31.194Z,14.90
2022-09-04T21:13:13.953Z,15.20
2022-09-04T21:15:48.143Z,15.00
2022-09-04T21:18:26.535Z,14.90
2022-09-04T21:21:09.484Z,14.80
2022-09-04T21:24:15.065Z,14.80
2022-09-04T21:27:06.842Z,15.00
2022-09-04T21:29:53.476Z,15.20
2022-09-04T21:32:50.672Z,15.10
2022-09-04T21:35:26.383Z,14.90
2022-09-04T21:38:18.340Z,14.70
2022-09-04T21:41:08.339Z,14.80
2022-09-04T21:43:57.945Z,14.70
2022-09-04T21:46:52.386Z,14.60
2022-09-04T21:50:00.512Z,14.50
2022-09-04T21:52:34.373Z,14.50
2022-09-04T21:57:05.546Z,14.50
2022-09-04T22:02:29.913Z,14.50
2022-09-04T22:02:43.258Z,14.40
2022-09-04T22:04:13.426Z,14.50
2022-09-04T22:08:49.771Z,14.70
2022-09-04T22:13:33.498Z,14.70
2022-09-04T22:13:40.446Z,14.80
2022-09-04T22:16:21.432Z,14.80
2022-09-04T22:18:52.736Z,14.70
2022-09-04T22:22:03.158Z,14.70
2022-09-04T22:24:49.167Z,14.40
2022-09-04T22:28:05.892Z,14.40
2022-09-04T22:31:03.820Z,14.30
2022-09-04T22:34:15.725Z,14.20
2022-09-04T22:37:12.937Z,14.40
2022-09-04T22:40:21.229Z,14.20
2022-09-04T22:43:23.563Z,14.10
2022-09-04T22:46:30.415Z,14.40
2022-09-04T22:49:22.803Z,14.10
2022-09-04T22:52:30.893Z,14.00
2022-09-04T22:55:39.482Z,14.00
2022-09-04T22:58:42.517Z,13.90
2022-09-04T23:01:31.804Z,13.90
2022-09-04T23:04:30.411Z,13.80
2022-09-04T23:11:39.984Z,13.70
2022-09-04T23:13:59.443Z,13.70
2022-09-04T23:13:59.883Z,13.90
2022-09-04T23:16:33.615Z,13.70
2022-09-04T23:24:53.474Z,13.70
2022-09-04T23:26:42.365Z,13.60
2022-09-04T23:26:49.986Z,13.50
2022-09-04T23:28:27.084Z,13.50
2022-09-04T23:31:19.879Z,13.40
2022-09-04T23:34:12.847Z,13.40
2022-09-04T23:37:08.214Z,13.50
2022-09-04T23:40:14.931Z,13.80
2022-09-04T23:43:09.622Z,13.70
2022-09-04T23:46:01.434Z,13.60
2022-09-04T23:52:04.840Z,13.60
2022-09-04T23:54:37.415Z,13.80
2022-09-04T23:57:30.848Z,13.80
